This is the latest recevied weather packets stored in our database for station/object K6TTR. If no packets are shown the sender has not sent any weather packets the latest 1 day(s).
| Time | Temp. | Humidity | Pressure | Rain* | Wind** | Luminosity | Snow |
|---|---|---|---|---|---|---|---|
| 1778012925 | 18.89° C | 44% | 1013.7 hPa | 0 mm | 0 m/s | 229 W/m² | - |
| 1778012631 | 18.89° C | 46% | 1013.7 hPa | 0 mm | 0 m/s | 141 W/m² | - |
| 1778012317 | 18.89° C | 44% | 1013.6 hPa | 0 mm | 0 m/s | 174 W/m² | - |
| 1778012021 | 18.89° C | 47% | 1013.6 hPa | 0 mm | 0 m/s | 165 W/m² | - |
| 1778011727 | 18.89° C | 46% | 1013 hPa | 0 mm | 0.45 m/s, 216° | 195 W/m² | - |
| 1778011413 | 18.89° C | 48% | 1013 hPa | 0 mm | 1.79 m/s, 215° | 1139 W/m² | - |
| 1778011118 | 18.89° C | 50% | 1013 hPa | 0 mm | 1.79 m/s, 279° | 1187 W/m² | - |
| 1778010821 | 18.33° C | 45% | 1013.1 hPa | 0 mm | 0 m/s | 1132 W/m² | - |
| 1778010525 | 18.89° C | 48% | 1013.1 hPa | 0 mm | 0.89 m/s, 304° | 322 W/m² | - |
| 1778010227 | 18.33° C | 44% | 1013.1 hPa | 0 mm | 0 m/s | 1151 W/m² | - |
| 1778009913 | 18.33° C | 47% | 1013.3 hPa | 0 mm | 0 m/s | 195 W/m² | - |
| 1778009619 | 18.33° C | 48% | 1013.3 hPa | 0 mm | 0 m/s | 199 W/m² | - |
| 1778009325 | 18.33° C | 49% | 1013.3 hPa | 0 mm | 0 m/s | 255 W/m² | - |
| 1778009030 | 18.33° C | 48% | 1013.3 hPa | 0 mm | 1.34 m/s, 231° | 193 W/m² | - |
| 1778008715 | 18.33° C | 47% | 1013.3 hPa | 0 mm | 0 m/s | 176 W/m² | - |
| 1778008420 | 17.78° C | 46% | 1013.3 hPa | 0 mm | 0.45 m/s, 231° | 176 W/m² | - |
| 1778008124 | 17.78° C | 49% | 1013.4 hPa | 0 mm | 1.79 m/s, 205° | 1030 W/m² | - |
| 1778007829 | 17.78° C | 51% | 1013.4 hPa | 0 mm | 0.89 m/s, 247° | 970 W/m² | - |
| 1778007513 | 17.22° C | 52% | 1013.4 hPa | 0 mm | 0.89 m/s, 217° | 1014 W/m² | - |
| 1778007219 | 17.22° C | 52% | 1013.3 hPa | 0 mm | 0.45 m/s, 211° | 204 W/m² | - |
| 1778006926 | 17.78° C | 51% | 1013.3 hPa | 0 mm | 1.34 m/s, 219° | 967 W/m² | - |
| 1778006611 | 17.78° C | 52% | 1013.3 hPa | 0 mm | 1.34 m/s, 255° | 940 W/m² | - |
| 1778006316 | 17.22° C | 54% | 1013.3 hPa | 0 mm | 0 m/s | 949 W/m² | - |
| 1778006021 | 17.22° C | 54% | 1013.3 hPa | 0 mm | 0.45 m/s, 215° | 928 W/m² | - |
| 1778005727 | 17.22° C | 54% | 1013.4 hPa | 0 mm | 0.45 m/s, 230° | 919 W/m² | - |
* Rain latest hour (hover to see other rain measurements)
** Current wind speed in m/s (hover to see current wind gust speed)